createdAt,value
2023-04-23T00:01:39.278Z,6.30
2023-04-23T00:04:09.632Z,6.70
2023-04-23T00:06:40.620Z,5.33
2023-04-23T00:09:08.978Z,4.00
2023-04-23T00:11:37.680Z,4.70
2023-04-23T00:14:06.492Z,4.13
2023-04-23T00:16:35.260Z,4.67
2023-04-23T00:19:03.557Z,4.97
2023-04-23T00:21:31.911Z,6.00
2023-04-23T00:24:01.503Z,3.60
2023-04-23T00:26:29.722Z,5.83
2023-04-23T00:28:57.912Z,6.57
2023-04-23T00:31:27.295Z,3.17
2023-04-23T00:33:56.034Z,4.77
2023-04-23T00:36:25.525Z,5.17
2023-04-23T00:38:53.790Z,6.27
2023-04-23T00:41:24.760Z,4.57
2023-04-23T00:43:53.922Z,4.83
2023-04-23T00:46:22.468Z,3.73
2023-04-23T00:48:51.880Z,4.23
2023-04-23T00:51:20.041Z,7.30
2023-04-23T00:53:48.170Z,4.53
2023-04-23T00:56:16.569Z,5.23
2023-04-23T00:58:47.099Z,4.23
2023-04-23T01:01:15.315Z,4.30
2023-04-23T01:03:43.796Z,6.23
2023-04-23T01:06:11.936Z,6.57
2023-04-23T01:08:41.689Z,5.60
2023-04-23T01:11:10.165Z,5.80
2023-04-23T01:13:38.335Z,4.63
2023-04-23T01:16:08.388Z,3.73
2023-04-23T01:18:36.678Z,6.17
2023-04-23T01:21:06.053Z,4.23
2023-04-23T01:23:35.661Z,4.07
2023-04-23T01:26:04.088Z,3.23
2023-04-23T01:28:32.380Z,4.83
2023-04-23T01:31:00.889Z,5.87
2023-04-23T01:33:31.443Z,4.17
2023-04-23T01:36:00.974Z,4.20
2023-04-23T01:38:31.856Z,6.57
2023-04-23T01:41:01.432Z,4.53
2023-04-23T01:43:30.155Z,5.17
2023-04-23T01:45:59.554Z,7.23
2023-04-23T01:48:29.888Z,6.23
2023-04-23T01:51:00.607Z,8.27
2023-04-23T01:53:28.750Z,4.07
2023-04-23T01:56:02.145Z,5.23
2023-04-23T01:58:30.354Z,5.17
2023-04-23T02:00:59.108Z,5.57
2023-04-23T02:03:32.081Z,6.23
2023-04-23T02:06:01.497Z,3.90
2023-04-23T02:08:29.672Z,4.77
2023-04-23T02:10:58.950Z,5.03
2023-04-23T02:13:28.879Z,4.87
2023-04-23T02:15:56.896Z,4.63
2023-04-23T02:18:24.964Z,4.07
2023-04-23T02:20:52.941Z,3.60
2023-04-23T02:23:21.074Z,4.63
2023-04-23T02:25:49.177Z,5.17
2023-04-23T02:28:17.181Z,5.10
2023-04-23T02:30:47.909Z,4.17
2023-04-23T02:33:16.140Z,4.63
2023-04-23T02:35:44.248Z,5.03
2023-04-23T02:38:12.373Z,5.23
2023-04-23T02:40:40.384Z,6.17
2023-04-23T02:43:08.597Z,6.00
2023-04-23T02:45:37.012Z,5.83
2023-04-23T02:48:06.520Z,5.87
2023-04-23T02:50:35.088Z,5.97
2023-04-23T02:53:03.323Z,4.70
2023-04-23T02:55:32.024Z,4.87
2023-04-23T02:58:00.872Z,6.20
2023-04-23T03:00:29.969Z,6.87
2023-04-23T03:02:58.083Z,10.30
2023-04-23T03:05:27.581Z,6.43
2023-04-23T03:07:55.720Z,8.03
2023-04-23T03:10:23.771Z,5.30
2023-04-23T03:12:51.916Z,7.50
2023-04-23T03:15:20.824Z,6.93
2023-04-23T03:17:49.134Z,6.20
2023-04-23T03:20:17.318Z,5.37
2023-04-23T03:22:47.386Z,6.10
2023-04-23T03:25:16.487Z,6.90
2023-04-23T03:27:44.591Z,7.80
2023-04-23T03:30:13.264Z,6.70
2023-04-23T03:32:41.476Z,9.20
2023-04-23T03:35:10.772Z,7.00
2023-04-23T03:37:42.572Z,7.93
2023-04-23T03:40:12.473Z,8.07
2023-04-23T03:42:42.664Z,9.20
2023-04-23T03:45:14.143Z,10.13
2023-04-23T03:47:42.322Z,7.63
2023-04-23T03:50:12.836Z,11.93
2023-04-23T03:52:42.368Z,10.87
2023-04-23T03:55:20.500Z,8.43
2023-04-23T03:57:49.263Z,6.90
2023-04-23T04:00:22.949Z,10.03
2023-04-23T04:02:51.118Z,6.90
2023-04-23T04:05:19.775Z,9.07
2023-04-23T04:07:47.920Z,12.30
2023-04-23T04:10:17.829Z,8.13
2023-04-23T04:12:47.704Z,8.90
2023-04-23T04:15:16.239Z,8.40
2023-04-23T04:17:45.831Z,9.07
2023-04-23T04:20:14.289Z,8.20
2023-04-23T04:22:42.320Z,8.90
2023-04-23T04:25:10.762Z,7.60
2023-04-23T04:27:41.399Z,8.00
2023-04-23T04:30:10.849Z,10.37
2023-04-23T04:32:40.327Z,8.90
2023-04-23T04:35:09.744Z,8.50
2023-04-23T04:37:37.769Z,8.47
2023-04-23T04:40:07.925Z,8.00
2023-04-23T04:42:36.262Z,7.40
2023-04-23T04:45:08.596Z,10.23
2023-04-23T04:47:36.650Z,8.73
2023-04-23T04:50:05.344Z,7.80
2023-04-23T04:52:33.396Z,12.37
2023-04-23T04:55:01.403Z,7.30
2023-04-23T04:57:29.479Z,5.47
2023-04-23T04:59:57.556Z,8.87
2023-04-23T05:02:27.083Z,7.23
2023-04-23T05:04:55.419Z,8.17
2023-04-23T05:07:23.456Z,5.63
2023-04-23T05:09:51.819Z,5.77
2023-04-23T05:12:19.849Z,7.10
2023-04-23T05:14:47.862Z,7.73
2023-04-23T05:17:16.062Z,5.17
2023-04-23T05:19:45.453Z,6.63
2023-04-23T05:22:13.497Z,8.00
2023-04-23T05:24:41.687Z,6.57
2023-04-23T05:27:09.993Z,7.17
2023-04-23T05:29:38.001Z,5.53
2023-04-23T05:32:06.076Z,5.07
2023-04-23T05:34:34.092Z,7.00
2023-04-23T05:37:03.532Z,6.03
2023-04-23T05:39:31.547Z,6.10
2023-04-23T05:41:59.538Z,5.83
2023-04-23T05:44:27.697Z,5.70
2023-04-23T05:46:55.800Z,7.10
2023-04-23T05:49:24.271Z,11.47
2023-04-23T05:51:52.374Z,8.63
2023-04-23T05:54:21.720Z,8.37
2023-04-23T05:56:49.812Z,6.90
2023-04-23T05:59:17.816Z,6.70
2023-04-23T06:01:46.281Z,7.83
2023-04-23T06:04:14.790Z,7.03
2023-04-23T06:06:43.477Z,8.40
2023-04-23T06:09:12.314Z,10.77
2023-04-23T06:11:41.818Z,6.60
2023-04-23T06:14:10.061Z,8.43
2023-04-23T06:16:38.572Z,9.17
2023-04-23T06:19:06.655Z,11.07
2023-04-23T06:21:34.903Z,5.40
2023-04-23T06:24:02.908Z,4.73
2023-04-23T06:26:33.082Z,4.97
2023-04-23T06:29:07.570Z,4.77
2023-04-23T06:31:45.636Z,4.47
2023-04-23T06:34:13.693Z,5.70
2023-04-23T06:36:43.402Z,5.97
2023-04-23T06:39:11.451Z,6.97
2023-04-23T06:41:39.614Z,3.87
2023-04-23T06:44:44.560Z,7.27
2023-04-23T06:47:12.629Z,6.47
2023-04-23T06:49:41.658Z,4.43
2023-04-23T06:52:09.851Z,8.23
2023-04-23T06:54:37.872Z,4.13
2023-04-23T06:57:05.912Z,3.93
2023-04-23T06:59:33.996Z,3.30
2023-04-23T07:02:03.937Z,4.93
2023-04-23T07:04:32.059Z,3.40
2023-04-23T07:07:00.329Z,3.53
2023-04-23T07:09:28.495Z,5.40
2023-04-23T07:11:56.650Z,4.53
2023-04-23T07:14:26.162Z,3.57
2023-04-23T07:16:55.124Z,3.70
2023-04-23T07:19:24.570Z,4.30
2023-04-23T07:21:53.374Z,4.50
2023-04-23T07:24:21.386Z,3.80
2023-04-23T07:26:49.418Z,4.20
2023-04-23T07:29:17.431Z,5.00
2023-04-23T07:31:46.349Z,4.23
2023-04-23T07:34:14.460Z,3.50
2023-04-23T07:36:43.860Z,3.50
2023-04-23T07:39:11.865Z,4.37
2023-04-23T07:41:40.033Z,3.77
2023-04-23T07:44:08.103Z,4.05
2023-04-23T07:46:36.290Z,3.70
2023-04-23T07:49:04.421Z,3.93
2023-04-23T07:51:32.727Z,4.33
2023-04-23T07:54:02.125Z,5.40
2023-04-23T07:56:32.419Z,7.50
2023-04-23T07:59:00.970Z,4.90
2023-04-23T08:01:29.228Z,7.77
2023-04-23T08:03:59.593Z,3.90
2023-04-23T08:06:29.904Z,3.97
2023-04-23T08:08:58.291Z,6.23
2023-04-23T08:11:29.517Z,4.60
2023-04-23T08:13:57.542Z,4.40
2023-04-23T08:16:26.063Z,3.10
2023-04-23T08:19:04.693Z,3.63
2023-04-23T08:21:33.499Z,3.47
2023-04-23T08:24:02.811Z,3.17
2023-04-23T08:26:32.452Z,4.63
2023-04-23T08:29:01.513Z,2.77
2023-04-23T08:31:29.626Z,5.40
2023-04-23T08:33:58.092Z,5.40
2023-04-23T08:36:26.758Z,3.20
2023-04-23T08:38:54.813Z,3.60
2023-04-23T08:41:26.479Z,5.77
2023-04-23T08:44:03.650Z,6.33
2023-04-23T08:46:33.496Z,4.73
2023-04-23T08:49:04.486Z,4.70
2023-04-23T08:51:38.923Z,4.13
2023-04-23T08:54:09.675Z,5.77
2023-04-23T08:56:38.304Z,5.50
2023-04-23T08:59:08.105Z,6.53
2023-04-23T09:01:36.701Z,4.63
2023-04-23T09:04:05.781Z,6.97
2023-04-23T09:06:34.053Z,4.10
2023-04-23T09:09:02.100Z,4.90
2023-04-23T09:11:31.469Z,4.53
2023-04-23T09:13:59.499Z,3.83
2023-04-23T09:16:29.519Z,5.50
2023-04-23T09:18:57.935Z,7.23
2023-04-23T09:21:25.908Z,3.60
2023-04-23T09:23:54.070Z,5.70
2023-04-23T09:26:23.076Z,2.80
2023-04-23T09:28:52.448Z,3.37
2023-04-23T09:31:24.517Z,6.00
2023-04-23T09:33:55.246Z,6.03
2023-04-23T09:36:24.166Z,3.90
2023-04-23T09:38:56.858Z,4.40
2023-04-23T09:41:25.803Z,5.73
2023-04-23T09:43:56.745Z,6.33
2023-04-23T09:46:35.029Z,3.47
2023-04-23T09:49:07.597Z,4.30
2023-04-23T09:51:37.461Z,3.07
2023-04-23T09:54:06.856Z,6.40
2023-04-23T09:56:34.894Z,5.87
2023-04-23T09:59:02.860Z,3.60
2023-04-23T10:01:31.164Z,5.70
2023-04-23T10:03:59.587Z,4.57
2023-04-23T10:06:44.454Z,5.23
2023-04-23T10:09:24.353Z,4.50
2023-04-23T10:11:53.573Z,2.60
2023-04-23T10:14:22.497Z,4.30
2023-04-23T10:16:53.757Z,2.70
2023-04-23T10:19:24.631Z,2.13
2023-04-23T10:24:28.392Z,3.00
2023-04-23T10:27:01.236Z,5.60
2023-04-23T10:29:31.515Z,3.03
2023-04-23T10:32:01.022Z,3.17
2023-04-23T10:34:30.291Z,5.63
2023-04-23T10:37:01.114Z,2.93
2023-04-23T10:39:31.635Z,4.60
2023-04-23T10:42:00.462Z,2.60
2023-04-23T10:44:57.468Z,2.73
2023-04-23T10:47:22.933Z,2.67
2023-04-23T10:49:51.665Z,4.47
2023-04-23T10:52:24.359Z,2.30
2023-04-23T10:54:59.784Z,3.50
2023-04-23T10:57:27.981Z,2.30
2023-04-23T10:59:58.723Z,1.77
2023-04-23T11:02:27.485Z,1.70
2023-04-23T11:04:57.953Z,2.43
2023-04-23T11:07:32.219Z,6.43
2023-04-23T11:10:01.149Z,2.77
2023-04-23T11:12:33.936Z,3.90
2023-04-23T11:15:12.324Z,2.10
2023-04-23T11:18:02.775Z,3.83
2023-04-23T11:20:30.911Z,3.30
2023-04-23T11:23:00.329Z,2.33
2023-04-23T11:25:30.280Z,2.07
2023-04-23T11:27:59.465Z,4.07
2023-04-23T11:30:29.196Z,2.30
2023-04-23T11:32:59.847Z,2.13
2023-04-23T11:35:29.528Z,3.00
2023-04-23T11:37:58.062Z,3.27
2023-04-23T11:40:30.868Z,2.97
2023-04-23T11:42:59.140Z,3.53
2023-04-23T11:45:29.364Z,2.07
2023-04-23T11:47:58.853Z,2.20
2023-04-23T11:50:29.036Z,2.10
2023-04-23T11:52:58.514Z,2.73
2023-04-23T11:55:30.350Z,2.37
2023-04-23T11:57:58.872Z,2.50
2023-04-23T12:00:28.117Z,2.70
2023-04-23T12:02:58.127Z,2.67
2023-04-23T12:05:30.621Z,1.43
2023-04-23T12:08:09.918Z,2.00
2023-04-23T12:10:45.622Z,17.57
2023-04-23T12:13:17.875Z,3.00
2023-04-23T12:15:47.701Z,2.50
2023-04-23T12:18:15.850Z,2.83
2023-04-23T12:20:44.404Z,1.47
2023-04-23T12:23:12.751Z,1.67
2023-04-23T12:25:42.219Z,1.30
2023-04-23T12:28:11.625Z,1.50
2023-04-23T12:30:45.156Z,2.60
2023-04-23T12:33:13.353Z,2.23
2023-04-23T12:35:42.535Z,2.30
2023-04-23T12:38:24.216Z,2.13
2023-04-23T12:40:52.412Z,1.40
2023-04-23T12:43:22.250Z,1.40
2023-04-23T12:45:51.242Z,1.77
2023-04-23T12:48:19.471Z,1.70
2023-04-23T12:50:48.264Z,2.37
2023-04-23T12:53:16.453Z,1.90
2023-04-23T12:55:45.665Z,2.67
2023-04-23T12:58:13.825Z,1.73
2023-04-23T13:00:43.249Z,2.30
2023-04-23T13:03:13.725Z,5.23
2023-04-23T13:05:41.968Z,6.07
2023-04-23T13:08:09.961Z,2.10
2023-04-23T13:10:38.292Z,2.03
2023-04-23T13:13:06.296Z,1.70
2023-04-23T13:15:34.344Z,6.40
2023-04-23T13:18:03.742Z,1.60
2023-04-23T13:20:31.766Z,2.13
2023-04-23T13:23:00.021Z,2.03
2023-04-23T13:25:28.057Z,4.03
2023-04-23T13:27:56.279Z,1.83
2023-04-23T13:30:24.458Z,1.80
2023-04-23T13:32:53.398Z,5.07
2023-04-23T13:35:22.795Z,4.13
2023-04-23T13:37:51.173Z,3.90
2023-04-23T13:40:19.394Z,2.40
2023-04-23T13:42:49.485Z,1.60
2023-04-23T13:45:17.695Z,1.73
2023-04-23T13:47:45.736Z,2.13
2023-04-23T13:50:13.924Z,7.07
2023-04-23T13:52:43.349Z,2.50
2023-04-23T13:55:11.687Z,2.37
2023-04-23T13:57:39.773Z,4.13
2023-04-23T14:00:09.107Z,2.30
2023-04-23T14:02:37.226Z,1.90
2023-04-23T14:05:06.579Z,7.83
2023-04-23T14:07:34.619Z,4.13
2023-04-23T14:10:04.547Z,1.70
2023-04-23T14:12:32.897Z,2.67
2023-04-23T14:15:01.069Z,3.23
2023-04-23T14:17:29.102Z,2.27
2023-04-23T14:19:57.101Z,1.40
2023-04-23T14:22:25.163Z,3.00
2023-04-23T14:24:58.416Z,1.67
2023-04-23T14:27:27.813Z,1.40
2023-04-23T14:29:59.451Z,1.97
2023-04-23T14:32:27.575Z,1.77
2023-04-23T14:34:55.629Z,4.30
2023-04-23T14:37:23.753Z,1.30
2023-04-23T14:39:51.851Z,1.43
2023-04-23T14:42:19.870Z,2.07
2023-04-23T14:44:49.801Z,2.80
2023-04-23T14:47:19.073Z,1.47
2023-04-23T14:49:47.215Z,1.10
2023-04-23T14:52:15.278Z,0.97
2023-04-23T14:54:43.378Z,1.20
2023-04-23T14:57:11.426Z,1.43
2023-04-23T14:59:39.618Z,1.20
2023-04-23T15:02:12.050Z,1.43
2023-04-23T15:04:40.555Z,2.83
2023-04-23T15:07:08.649Z,1.40
2023-04-23T15:09:36.653Z,1.30
2023-04-23T15:12:26.181Z,1.47
2023-04-23T15:14:56.611Z,1.40
2023-04-23T15:17:25.980Z,1.03
2023-04-23T15:19:56.061Z,1.17
2023-04-23T15:22:24.093Z,2.30
2023-04-23T15:24:52.088Z,1.03
2023-04-23T15:27:22.008Z,2.50
2023-04-23T15:29:50.408Z,3.60
2023-04-23T15:32:18.770Z,3.30
2023-04-23T15:34:48.170Z,1.30
2023-04-23T15:37:16.378Z,1.90
2023-04-23T15:39:44.412Z,1.13
2023-04-23T15:42:14.131Z,1.13
2023-04-23T15:44:42.156Z,1.43
2023-04-23T15:47:10.172Z,1.10
2023-04-23T15:49:38.209Z,2.17
2023-04-23T15:52:07.602Z,3.17
2023-04-23T15:54:35.649Z,0.90
2023-04-23T15:57:04.402Z,2.50
2023-04-23T15:59:32.397Z,1.20
2023-04-23T16:02:00.490Z,2.10
2023-04-23T16:04:28.676Z,1.37
2023-04-23T16:06:56.808Z,1.20
2023-04-23T16:09:26.270Z,1.33
2023-04-23T16:11:54.526Z,0.80
2023-04-23T16:14:23.052Z,0.90
2023-04-23T16:16:51.191Z,2.10
2023-04-23T16:19:19.295Z,1.07
2023-04-23T16:21:47.344Z,1.20
2023-04-23T16:24:16.667Z,1.77
2023-04-23T16:26:46.338Z,1.77
2023-04-23T16:29:22.272Z,2.50
2023-04-23T16:31:51.424Z,1.30
2023-04-23T16:34:19.465Z,1.57
2023-04-23T16:36:47.930Z,2.30
2023-04-23T16:39:16.137Z,1.97
2023-04-23T16:41:44.712Z,1.40
2023-04-23T16:44:14.261Z,1.43
2023-04-23T16:46:42.383Z,5.10
2023-04-23T16:49:10.451Z,1.40
2023-04-23T16:51:38.645Z,2.90
2023-04-23T16:54:06.855Z,3.33
2023-04-23T16:56:34.967Z,1.30
2023-04-23T16:59:03.769Z,1.23
2023-04-23T17:01:33.167Z,1.17
2023-04-23T17:04:01.424Z,1.47
2023-04-23T17:06:31.261Z,3.20
2023-04-23T17:09:00.847Z,2.63
2023-04-23T17:11:30.230Z,3.20
2023-04-23T17:13:59.015Z,1.27
2023-04-23T17:16:27.534Z,3.27
2023-04-23T17:18:57.582Z,0.90
2023-04-23T17:21:27.358Z,20.63
2023-04-23T17:23:55.612Z,19.20
2023-04-23T17:26:23.665Z,2.40
2023-04-23T17:28:51.703Z,0.90
2023-04-23T17:31:20.789Z,2.30
2023-04-23T17:33:49.574Z,1.43
2023-04-23T17:36:19.123Z,2.60
2023-04-23T17:38:47.164Z,1.00
2023-04-23T17:41:15.223Z,1.10
2023-04-23T17:43:43.264Z,1.60
2023-04-23T17:46:11.362Z,2.40
2023-04-23T17:48:40.617Z,1.80
2023-04-23T17:51:08.811Z,3.27
2023-04-23T17:53:38.436Z,2.13
2023-04-23T17:56:06.564Z,2.40
2023-04-23T17:58:36.066Z,2.40
2023-04-23T18:01:05.759Z,5.07
2023-04-23T18:03:34.060Z,3.17
2023-04-23T18:06:02.368Z,2.03
2023-04-23T18:08:31.238Z,2.10
2023-04-23T18:11:01.679Z,1.53
2023-04-23T18:13:29.872Z,0.87
2023-04-23T18:15:58.288Z,1.20
2023-04-23T18:18:26.337Z,0.83
2023-04-23T18:20:54.424Z,1.10
2023-04-23T18:23:22.628Z,1.33
2023-04-23T18:25:50.820Z,1.20
2023-04-23T18:28:20.232Z,1.20
2023-04-23T18:30:48.373Z,3.97
2023-04-23T18:33:31.702Z,2.07
2023-04-23T18:36:05.523Z,1.30
2023-04-23T18:38:39.866Z,3.57
2023-04-23T18:41:07.889Z,3.67
2023-04-23T18:43:37.293Z,1.33
2023-04-23T18:46:05.480Z,1.03
2023-04-23T18:48:51.710Z,1.27
2023-04-23T18:51:27.514Z,1.63
2023-04-23T18:53:55.575Z,2.20
2023-04-23T18:56:25.003Z,1.27
2023-04-23T18:58:54.465Z,3.43
2023-04-23T19:01:22.579Z,1.20
2023-04-23T19:03:50.839Z,1.60
2023-04-23T19:06:19.563Z,1.43
2023-04-23T19:08:47.965Z,1.13
2023-04-23T19:11:15.985Z,1.30
2023-04-23T19:13:43.998Z,5.60
2023-04-23T19:16:16.202Z,2.30
2023-04-23T19:18:44.826Z,1.30
2023-04-23T19:21:12.962Z,0.90
2023-04-23T19:23:41.037Z,4.43
2023-04-23T19:26:09.756Z,1.47
2023-04-23T19:28:37.869Z,2.20
2023-04-23T19:31:06.183Z,2.53
2023-04-23T19:33:35.805Z,2.37
2023-04-23T19:36:03.831Z,2.60
2023-04-23T19:38:31.997Z,6.83
2023-04-23T19:41:00.021Z,3.83
2023-04-23T19:43:28.070Z,2.63
2023-04-23T19:45:56.210Z,2.47
2023-04-23T19:48:24.254Z,15.53
2023-04-23T19:50:53.672Z,18.13
2023-04-23T19:53:21.911Z,6.57
2023-04-23T19:55:50.006Z,9.63
2023-04-23T19:58:18.657Z,2.87
2023-04-23T20:00:46.834Z,1.57
2023-04-23T20:03:16.033Z,2.60
2023-04-23T20:05:45.954Z,7.43
2023-04-23T20:08:25.790Z,2.90
2023-04-23T20:10:54.373Z,4.03
2023-04-23T20:13:23.617Z,3.73
2023-04-23T20:15:53.584Z,2.07
2023-04-23T20:18:22.144Z,2.17
2023-04-23T20:20:50.144Z,5.63
2023-04-23T20:23:19.479Z,4.70
2023-04-23T20:25:48.058Z,4.20
2023-04-23T20:28:16.180Z,2.90
2023-04-23T20:30:44.259Z,2.60
2023-04-23T20:33:12.480Z,2.60
2023-04-23T20:35:41.809Z,5.40
2023-04-23T20:38:09.912Z,9.63
2023-04-23T20:40:39.768Z,12.70
2023-04-23T20:43:08.371Z,6.27
2023-04-23T20:45:36.404Z,17.30
2023-04-23T20:48:04.609Z,10.70
2023-04-23T20:50:32.725Z,11.50
2023-04-23T20:53:01.011Z,7.40
2023-04-23T20:55:29.122Z,6.90
2023-04-23T20:57:58.504Z,13.60
2023-04-23T21:00:27.891Z,7.43
2023-04-23T21:02:56.419Z,8.23
2023-04-23T21:05:24.533Z,2.70
2023-04-23T21:07:52.638Z,1.80
2023-04-23T21:10:20.872Z,2.70
2023-04-23T21:12:48.976Z,1.50
2023-04-23T21:15:19.031Z,1.87
2023-04-23T21:17:47.512Z,3.90
2023-04-23T21:20:15.632Z,6.30
2023-04-23T21:22:43.668Z,1.87
2023-04-23T21:25:11.749Z,2.67
2023-04-23T21:27:39.904Z,1.33
2023-04-23T21:30:17.646Z,3.90
2023-04-23T21:32:47.125Z,0.80
2023-04-23T21:35:15.346Z,1.17
2023-04-23T21:37:43.397Z,1.20
2023-04-23T21:40:11.583Z,1.03
2023-04-23T21:42:40.164Z,2.30
2023-04-23T21:45:09.472Z,2.27
2023-04-23T21:47:37.544Z,4.23
2023-04-23T21:50:08.461Z,1.80
2023-04-23T21:52:37.078Z,1.20
2023-04-23T21:55:05.391Z,1.00
2023-04-23T21:57:34.782Z,0.80
2023-04-23T22:00:04.295Z,0.97
2023-04-23T22:02:42.009Z,2.97
2023-04-23T22:05:11.877Z,2.57
2023-04-23T22:07:42.671Z,1.47
2023-04-23T22:10:13.043Z,1.40
2023-04-23T22:12:41.983Z,2.83
2023-04-23T22:15:13.010Z,2.40
2023-04-23T22:17:43.250Z,2.20
2023-04-23T22:20:13.354Z,1.10
2023-04-23T22:22:43.017Z,1.70
2023-04-23T22:25:12.708Z,1.20
2023-04-23T22:27:42.040Z,0.80
2023-04-23T22:30:11.712Z,2.97
2023-04-23T22:32:40.851Z,0.70
2023-04-23T22:35:09.970Z,2.60
2023-04-23T22:37:39.611Z,2.50
2023-04-23T22:40:09.475Z,1.73
2023-04-23T22:42:37.757Z,1.63
2023-04-23T22:45:07.093Z,1.57
2023-04-23T22:47:35.139Z,4.40
2023-04-23T22:50:03.282Z,2.20
2023-04-23T22:52:31.472Z,0.80
2023-04-23T22:55:00.922Z,1.10
2023-04-23T22:57:29.011Z,1.20
2023-04-23T22:59:57.080Z,1.87
2023-04-23T23:02:26.616Z,1.20
2023-04-23T23:04:54.838Z,0.90
2023-04-23T23:07:22.847Z,1.43
2023-04-23T23:09:51.166Z,1.07
2023-04-23T23:12:20.555Z,2.40
2023-04-23T23:14:48.588Z,2.60
2023-04-23T23:17:16.560Z,2.00
2023-04-23T23:19:44.908Z,1.87
2023-04-23T23:22:13.294Z,1.13
2023-04-23T23:24:41.306Z,1.20
2023-04-23T23:27:09.310Z,3.27
2023-04-23T23:29:38.700Z,3.17
2023-04-23T23:32:06.762Z,2.10
2023-04-23T23:34:34.976Z,2.10
2023-04-23T23:37:02.983Z,1.37
2023-04-23T23:39:31.015Z,1.17
2023-04-23T23:41:59.881Z,1.00
2023-04-23T23:44:28.013Z,0.90
2023-04-23T23:46:57.509Z,3.00
2023-04-23T23:49:25.774Z,1.63
2023-04-23T23:51:53.790Z,1.17
2023-04-23T23:54:21.842Z,0.93
2023-04-23T23:56:49.962Z,0.87
2023-04-23T23:59:17.958Z,1.03
